Time;durP1;ratioP1;P1;durP2;ratioP2;P2;SDS_P1;SDS_P2;PMS_P1;PMS_P2;Temp;Humidity;BMP_temperature;BMP_pressure;BME280_temperature;BME280_humidity;BME280_pressure;Samples;Min_cycle;Max_cycle;Signal;HPM_P1;HPM_P2
2022/11/22 00:00:39;;;;;;;6.80;3.25;;;17.10;1.00;;;;;;4823011;29;20115;-35
2022/11/22 00:03:06;;;;;;;5.22;3.30;;;17.10;1.00;;;;;;4822558;29;20073;-35
2022/11/22 00:05:33;;;;;;;6.07;3.50;;;17.00;1.00;;;;;;4822783;29;20051;-35
2022/11/22 00:08:00;;;;;;;8.27;3.30;;;17.00;1.00;;;;;;4822834;29;20051;-35
2022/11/22 00:10:26;;;;;;;6.32;2.40;;;17.00;1.00;;;;;;4822813;29;20057;-35
2022/11/22 00:12:53;;;;;;;6.95;2.95;;;16.90;1.00;;;;;;4822352;29;20085;-35
2022/11/22 00:15:20;;;;;;;4.65;2.92;;;16.90;1.00;;;;;;4822857;29;20552;-34
2022/11/22 00:17:47;;;;;;;5.85;2.80;;;16.90;1.00;;;;;;4822812;29;20510;-35
2022/11/22 00:20:13;;;;;;;4.30;2.50;;;16.80;1.00;;;;;;4806279;29;20406;-35
2022/11/22 00:22:40;;;;;;;3.70;2.20;;;16.80;1.00;;;;;;4822514;29;20085;-35
2022/11/22 00:25:11;;;;;;;8.20;2.75;;;16.80;1.00;;;;;;4822565;29;20051;-35
2022/11/22 00:27:39;;;;;;;6.13;3.05;;;16.80;1.00;;;;;;4823584;29;20054;-34
2022/11/22 00:30:06;;;;;;;5.93;2.05;;;16.70;1.00;;;;;;4825762;29;20476;-34
2022/11/22 00:32:33;;;;;;;5.15;2.63;;;16.70;1.00;;;;;;4825585;29;20498;-35
2022/11/22 00:35:00;;;;;;;7.13;2.95;;;16.70;1.00;;;;;;4825871;29;20125;-34
2022/11/22 00:37:27;;;;;;;5.85;2.25;;;16.70;1.00;;;;;;4825810;29;20582;-34
2022/11/22 00:39:53;;;;;;;4.68;2.30;;;16.70;1.00;;;;;;4825772;29;20046;-34
2022/11/22 00:42:20;;;;;;;5.05;2.45;;;16.70;1.00;;;;;;4825473;29;20050;-35
2022/11/22 00:44:47;;;;;;;5.32;2.50;;;16.60;1.00;;;;;;4825589;29;20060;-35
2022/11/22 00:47:13;;;;;;;5.43;2.38;;;16.60;1.00;;;;;;4825619;29;20050;-34
2022/11/22 00:49:40;;;;;;;5.68;2.60;;;16.60;1.00;;;;;;4825269;29;20074;-34
2022/11/22 00:52:07;;;;;;;5.13;2.50;;;16.60;1.00;;;;;;4825563;29;20073;-35
2022/11/22 00:54:33;;;;;;;3.35;1.73;;;16.50;1.00;;;;;;4825341;29;20066;-34
2022/11/22 00:57:00;;;;;;;3.83;2.10;;;16.50;1.00;;;;;;4825421;29;20182;-35
2022/11/22 00:59:27;;;;;;;5.35;2.67;;;16.50;1.00;;;;;;4825443;29;20126;-35
2022/11/22 01:01:54;;;;;;;3.35;1.95;;;16.50;1.00;;;;;;4825483;29;20310;-35
2022/11/22 01:04:21;;;;;;;2.63;1.67;;;16.40;1.00;;;;;;4825148;29;20054;-34
2022/11/22 01:06:48;;;;;;;5.72;2.10;;;16.40;1.00;;;;;;4825338;29;20413;-34
2022/11/22 01:09:20;;;;;;;3.35;1.52;;;16.40;1.00;;;;;;4825277;29;20416;-34
2022/11/22 01:11:47;;;;;;;3.22;1.65;;;16.40;1.00;;;;;;4825513;29;20111;-34
2022/11/22 01:14:15;;;;;;;5.40;2.10;;;16.40;1.00;;;;;;4824836;29;20153;-35
2022/11/22 01:16:42;;;;;;;3.55;1.88;;;16.30;1.00;;;;;;4825161;29;20047;-35
2022/11/22 01:19:09;;;;;;;4.63;1.55;;;16.30;1.00;;;;;;4825195;29;20166;-35
2022/11/22 01:21:37;;;;;;;3.97;1.77;;;16.30;1.00;;;;;;4808852;29;20042;-34
2022/11/22 01:24:04;;;;;;;3.75;1.73;;;16.30;1.00;;;;;;4824850;29;20050;-34
2022/11/22 01:26:32;;;;;;;3.17;1.50;;;16.30;1.00;;;;;;4825019;29;20106;-34
2022/11/22 01:28:58;;;;;;;4.15;1.55;;;16.20;1.00;;;;;;4825118;29;20422;-34
2022/11/22 01:31:25;;;;;;;2.95;1.80;;;16.20;1.00;;;;;;4825072;29;20475;-34
2022/11/22 01:33:52;;;;;;;4.03;1.75;;;16.20;1.00;;;;;;4824409;29;20465;-35
2022/11/22 01:36:19;;;;;;;4.22;2.20;;;16.20;1.00;;;;;;4824978;29;20054;-34
2022/11/22 01:38:45;;;;;;;4.05;1.90;;;16.20;1.00;;;;;;4824681;29;20133;-34
2022/11/22 01:41:12;;;;;;;2.30;1.73;;;16.10;1.00;;;;;;4824756;29;20049;-35
2022/11/22 01:43:39;;;;;;;3.20;1.33;;;16.10;1.00;;;;;;4824624;29;20455;-35
2022/11/22 01:46:37;;;;;;;3.97;1.50;;;16.10;1.00;;;;;;4824712;29;20046;-34
2022/11/22 01:49:13;;;;;;;3.47;1.48;;;16.10;1.00;;;;;;4824609;29;20042;-34
2022/11/22 01:51:42;;;;;;;5.35;1.60;;;16.10;1.00;;;;;;4808400;29;20042;-34
2022/11/22 01:54:14;;;;;;;3.15;1.40;;;16.00;1.00;;;;;;4824352;29;20449;-34
2022/11/22 01:56:45;;;;;;;3.47;1.80;;;16.00;1.00;;;;;;4824514;29;20050;-34
2022/11/22 01:59:15;;;;;;;3.55;1.67;;;16.00;1.00;;;;;;4824606;29;20053;-34
2022/11/22 02:01:42;;;;;;;6.05;1.65;;;16.00;1.00;;;;;;4824420;29;20073;-34
2022/11/22 02:04:14;;;;;;;3.40;1.42;;;16.00;1.00;;;;;;4824026;29;20083;-35
2022/11/22 02:06:57;;;;;;;2.72;1.65;;;16.00;1.00;;;;;;4824445;29;20125;-34
2022/11/22 02:09:25;;;;;;;3.95;1.80;;;16.00;1.00;;;;;;4824575;29;20086;-34
2022/11/22 02:11:56;;;;;;;3.05;1.40;;;15.90;1.00;;;;;;4824169;29;20054;-35
2022/11/22 02:14:25;;;;;;;3.47;1.63;;;15.90;1.00;;;;;;4824121;29;20054;-34
2022/11/22 02:16:52;;;;;;;4.95;1.48;;;15.90;1.00;;;;;;4824360;29;20048;-34
2022/11/22 02:19:25;;;;;;;3.22;1.58;;;15.90;1.00;;;;;;4824194;29;20049;-34
2022/11/22 02:21:58;;;;;;;7.07;2.42;;;15.90;1.00;;;;;;4824150;29;20125;-35
2022/11/22 02:24:42;;;;;;;3.22;1.85;;;15.90;1.00;;;;;;4807816;29;20502;-33
2022/11/22 02:27:09;;;;;;;3.25;1.65;;;15.80;1.00;;;;;;4824096;29;20085;-33
2022/11/22 02:29:36;;;;;;;2.35;1.17;;;15.80;1.00;;;;;;4824326;29;20102;-34
2022/11/22 02:32:03;;;;;;;4.18;1.52;;;15.80;1.00;;;;;;4823627;29;20050;-34
2022/11/22 02:34:43;;;;;;;3.83;1.35;;;15.80;1.00;;;;;;4822509;29;20058;-34
2022/11/22 02:37:13;;;;;;;5.53;1.60;;;15.80;1.00;;;;;;4833007;29;20050;-34
2022/11/22 02:39:43;;;;;;;3.25;1.73;;;15.80;1.00;;;;;;4838764;29;20129;-34
2022/11/22 02:42:10;;;;;;;2.53;1.60;;;15.70;1.00;;;;;;4841600;29;20133;-35
2022/11/22 02:44:40;;;;;;;2.38;1.17;;;15.70;1.00;;;;;;4841706;29;20118;-34
2022/11/22 02:47:07;;;;;;;4.18;2.20;;;15.70;1.00;;;;;;4841990;29;20387;-35
2022/11/22 02:49:34;;;;;;;2.10;1.42;;;15.70;1.00;;;;;;4841582;29;20062;-34
2022/11/22 02:52:01;;;;;;;3.85;1.45;;;15.70;1.00;;;;;;4839607;29;20575;-35
2022/11/22 02:54:27;;;;;;;3.80;2.17;;;15.70;1.00;;;;;;4841462;29;20045;-35
2022/11/22 02:56:54;;;;;;;3.50;1.98;;;15.70;1.00;;;;;;4841995;29;20045;-34
2022/11/22 02:59:21;;;;;;;2.65;1.40;;;15.70;1.00;;;;;;4841851;29;20042;-35
2022/11/22 03:01:48;;;;;;;3.72;1.70;;;15.70;1.00;;;;;;4841741;29;20052;-34
2022/11/22 03:04:23;;;;;;;2.92;1.25;;;15.60;1.00;;;;;;4841303;29;20053;-34
2022/11/22 03:06:55;;;;;;;3.90;1.20;;;15.60;1.00;;;;;;4841744;29;20050;-34
2022/11/22 03:09:24;;;;;;;5.60;2.05;;;15.60;1.00;;;;;;4841662;29;20054;-34
2022/11/22 03:11:51;;;;;;;2.00;1.35;;;15.60;1.00;;;;;;4834914;29;20078;-36
2022/11/22 03:14:18;;;;;;;2.47;1.58;;;15.60;1.00;;;;;;4838009;24;20049;-37
2022/11/22 03:16:46;;;;;;;3.00;1.50;;;15.60;1.00;;;;;;4834734;29;20050;-36
2022/11/22 03:19:13;;;;;;;2.08;1.10;;;15.50;1.00;;;;;;4823345;29;20081;-37
2022/11/22 03:21:41;;;;;;;5.90;1.67;;;15.50;1.00;;;;;;4823310;29;20050;-37
2022/11/22 03:24:09;;;;;;;2.95;1.52;;;15.50;1.00;;;;;;4832479;29;20061;-37
2022/11/22 03:26:37;;;;;;;2.53;1.50;;;15.50;1.00;;;;;;4841480;29;20135;-37
2022/11/22 03:29:04;;;;;;;3.40;1.50;;;15.50;1.00;;;;;;4841299;29;20054;-37
2022/11/22 03:31:31;;;;;;;4.95;1.67;;;15.50;1.00;;;;;;4841443;29;20077;-37
2022/11/22 03:33:57;;;;;;;3.25;1.60;;;15.40;1.00;;;;;;4840844;29;20053;-37
2022/11/22 03:36:24;;;;;;;4.60;1.70;;;15.40;1.00;;;;;;4836326;29;20068;-37
2022/11/22 03:38:51;;;;;;;4.20;1.48;;;15.40;1.00;;;;;;4838073;29;20558;-37
2022/11/22 03:41:18;;;;;;;3.25;1.48;;;15.40;1.00;;;;;;4841213;29;20471;-37
2022/11/22 03:43:44;;;;;;;4.35;1.38;;;15.40;1.00;;;;;;4840917;29;20085;-37
2022/11/22 03:46:16;;;;;;;2.90;1.40;;;15.40;1.00;;;;;;4841165;29;20077;-37
2022/11/22 03:48:43;;;;;;;3.80;1.90;;;15.40;1.00;;;;;;4841230;29;20505;-37
2022/11/22 03:51:10;;;;;;;4.10;1.52;;;15.40;1.00;;;;;;4825057;29;20053;-36
2022/11/22 03:53:37;;;;;;;5.25;1.70;;;15.40;1.00;;;;;;4840648;29;20053;-37
2022/11/22 03:56:05;;;;;;;6.07;1.63;;;15.40;1.00;;;;;;4841065;29;20073;-37
2022/11/22 03:58:32;;;;;;;7.40;1.92;;;15.40;1.00;;;;;;4841108;29;20106;-36
2022/11/22 04:00:59;;;;;;;4.93;1.75;;;15.30;1.00;;;;;;4837050;29;20053;-36
2022/11/22 04:03:26;;;;;;;3.50;1.50;;;15.30;1.00;;;;;;4837979;29;20050;-37
2022/11/22 04:05:52;;;;;;;3.97;1.25;;;15.30;1.00;;;;;;4844890;29;20057;-37
2022/11/22 04:08:19;;;;;;;2.03;1.40;;;15.30;1.00;;;;;;4844796;29;20058;-37
2022/11/22 04:10:48;;;;;;;3.45;1.38;;;15.30;1.00;;;;;;4844655;29;20417;-38
2022/11/22 04:13:15;;;;;;;2.08;1.45;;;15.30;1.00;;;;;;4844134;29;20041;-38
2022/11/22 04:15:42;;;;;;;3.08;1.35;;;15.30;1.00;;;;;;4844598;29;20129;-38
2022/11/22 04:18:10;;;;;;;3.63;1.77;;;15.30;1.00;;;;;;4844902;29;20046;-38
2022/11/22 04:23:24;;;;;;;1.98;1.40;;;15.20;1.00;;;;;;4844141;29;20050;-38
2022/11/22 04:25:58;;;;;;;3.33;1.20;;;15.20;1.00;;;;;;4844465;29;20129;-38
2022/11/22 04:28:24;;;;;;;2.67;1.20;;;15.20;1.00;;;;;;4844415;29;20046;-38
2022/11/22 04:33:56;;;;;;;5.30;1.58;;;15.20;1.00;;;;;;4844096;29;20461;-37
2022/11/22 04:36:23;;;;;;;1.67;0.88;;;15.10;1.00;;;;;;4844367;29;20050;-37
2022/11/22 04:38:51;;;;;;;4.32;1.40;;;15.10;1.00;;;;;;4841839;29;20045;-37
2022/11/22 04:41:17;;;;;;;3.17;1.42;;;15.10;1.00;;;;;;4829227;29;20070;-37
2022/11/22 04:46:30;;;;;;;4.00;1.55;;;15.10;1.00;;;;;;4843985;29;20133;-37
2022/11/22 04:48:56;;;;;;;5.30;1.50;;;15.10;1.00;;;;;;4844066;29;20046;-37
2022/11/22 04:54:09;;;;;;;3.95;1.20;;;15.10;1.00;;;;;;4843657;29;20090;-37
2022/11/22 04:56:35;;;;;;;3.80;1.05;;;15.10;1.00;;;;;;4843787;29;20506;-37
2022/11/22 04:59:02;;;;;;;2.40;1.00;;;15.10;1.00;;;;;;4844151;29;20046;-36
2022/11/22 05:01:29;;;;;;;3.67;1.48;;;15.00;1.00;;;;;;4843819;29;20506;-36
2022/11/22 05:03:56;;;;;;;3.97;1.00;;;15.00;1.00;;;;;;4843548;29;20061;-36
2022/11/22 05:06:22;;;;;;;4.85;1.52;;;15.00;1.00;;;;;;4843707;29;20045;-36
2022/11/22 05:08:49;;;;;;;5.88;1.92;;;15.00;1.00;;;;;;4843681;29;20057;-37
2022/11/22 05:11:17;;;;;;;3.05;1.15;;;15.00;1.00;;;;;;4831087;29;20415;-37
2022/11/22 05:13:44;;;;;;;3.10;2.08;;;15.00;1.00;;;;;;4834867;29;20052;-37
2022/11/22 05:16:13;;;;;;;6.30;1.48;;;15.00;1.00;;;;;;4843519;29;20129;-38
2022/11/22 05:18:40;;;;;;;6.70;1.33;;;15.00;1.00;;;;;;4841515;29;20046;-38
2022/11/22 05:21:12;;;;;;;7.22;1.30;;;15.00;1.00;;;;;;4835830;29;20102;-37
2022/11/22 05:23:54;;;;;;;5.85;1.48;;;15.00;1.00;;;;;;4843005;29;20054;-37
2022/11/22 05:26:26;;;;;;;13.98;1.60;;;15.00;1.00;;;;;;4843388;29;20049;-37
2022/11/22 05:28:53;;;;;;;8.88;1.95;;;14.90;1.00;;;;;;4843477;29;20058;-38
2022/11/22 05:31:22;;;;;;;12.63;1.90;;;14.90;1.00;;;;;;4842937;29;20049;-37
2022/11/22 05:33:53;;;;;;;9.60;1.77;;;14.90;1.00;;;;;;4842543;29;20050;-38
2022/11/22 05:36:21;;;;;;;4.40;1.90;;;14.90;1.00;;;;;;4843296;29;20046;-37
2022/11/22 05:38:48;;;;;;;7.32;2.40;;;14.90;1.00;;;;;;4843201;29;20053;-38
2022/11/22 05:41:15;;;;;;;8.43;2.13;;;14.90;1.00;;;;;;4843104;29;20498;-37
2022/11/22 05:43:42;;;;;;;4.65;1.25;;;14.90;1.00;;;;;;4842830;29;20069;-36
2022/11/22 05:46:14;;;;;;;3.83;1.63;;;14.90;1.00;;;;;;4843030;29;20081;-36
2022/11/22 05:48:46;;;;;;;5.30;1.85;;;14.80;1.00;;;;;;4843055;29;20056;-36
2022/11/22 05:51:16;;;;;;;3.67;1.08;;;14.80;1.00;;;;;;4843063;29;20046;-37
2022/11/22 05:53:44;;;;;;;8.18;2.10;;;14.80;1.00;;;;;;4842545;29;20049;-36
2022/11/22 05:56:16;;;;;;;7.40;1.35;;;14.80;1.00;;;;;;4842895;29;20046;-36
2022/11/22 05:58:43;;;;;;;4.47;1.20;;;14.80;1.00;;;;;;4840266;29;20038;-36
2022/11/22 06:01:14;;;;;;;5.75;1.33;;;14.80;1.00;;;;;;4822933;29;20125;-37
2022/11/22 06:03:41;;;;;;;6.70;1.83;;;14.80;1.00;;;;;;4829837;29;20053;-37
2022/11/22 06:06:09;;;;;;;4.97;1.48;;;14.80;1.00;;;;;;4833871;29;20060;-36
2022/11/22 06:08:38;;;;;;;4.50;1.33;;;14.70;1.00;;;;;;4842694;29;20046;-36
2022/11/22 06:11:20;;;;;;;7.40;1.45;;;14.70;1.00;;;;;;4826050;29;20502;-36
2022/11/22 06:13:51;;;;;;;3.33;1.10;;;14.70;1.00;;;;;;4842151;29;20124;-37
2022/11/22 06:16:18;;;;;;;14.35;2.15;;;14.70;1.00;;;;;;4842578;29;20070;-37
2022/11/22 06:18:45;;;;;;;4.13;0.80;;;14.70;1.00;;;;;;4842538;29;20074;-37
2022/11/22 06:21:18;;;;;;;4.38;1.38;;;14.70;1.00;;;;;;4842231;29;20062;-36
2022/11/22 06:23:45;;;;;;;3.88;1.48;;;14.70;1.00;;;;;;4842126;29;20068;-37
2022/11/22 06:26:15;;;;;;;3.63;0.80;;;14.70;1.00;;;;;;4841336;29;20073;-36
2022/11/22 06:28:42;;;;;;;5.65;1.45;;;14.70;1.00;;;;;;4842250;29;20045;-36
2022/11/22 06:31:09;;;;;;;3.85;1.30;;;14.70;1.00;;;;;;4842242;29;20079;-36
2022/11/22 06:33:36;;;;;;;5.20;0.90;;;14.70;1.00;;;;;;4841840;29;20060;-37
2022/11/22 06:36:12;;;;;;;3.08;1.25;;;14.70;1.00;;;;;;4842161;29;20049;-37
2022/11/22 06:38:39;;;;;;;3.53;0.93;;;14.60;1.00;;;;;;4842005;29;20052;-36
2022/11/22 06:41:09;;;;;;;4.00;1.30;;;14.60;1.00;;;;;;4842103;29;20041;-36
2022/11/22 06:43:37;;;;;;;4.38;1.65;;;14.60;1.00;;;;;;4841570;29;20542;-36
2022/11/22 06:46:11;;;;;;;4.35;1.33;;;14.60;1.00;;;;;;4842042;29;20121;-36
2022/11/22 06:48:39;;;;;;;5.50;2.10;;;14.60;1.00;;;;;;4841958;29;20498;-37
2022/11/22 06:51:11;;;;;;;3.80;1.27;;;14.60;1.00;;;;;;4841841;29;20050;-36
2022/11/22 06:53:38;;;;;;;8.02;1.60;;;14.60;1.00;;;;;;4841705;29;20042;-36
2022/11/22 06:56:20;;;;;;;8.35;1.02;;;14.60;1.00;;;;;;4841800;29;20050;-36
2022/11/22 06:58:48;;;;;;;4.93;1.30;;;14.50;1.00;;;;;;4841817;29;20077;-36
2022/11/22 07:01:21;;;;;;;4.70;1.80;;;14.50;1.00;;;;;;4842395;29;20053;-36
2022/11/22 07:03:48;;;;;;;5.78;1.35;;;14.50;1.00;;;;;;4841539;29;20103;-37
2022/11/22 07:06:18;;;;;;;3.13;1.60;;;14.50;1.00;;;;;;4841492;29;20524;-36
2022/11/22 07:08:45;;;;;;;3.75;1.23;;;14.50;1.00;;;;;;4841390;29;20050;-36
2022/11/22 07:11:15;;;;;;;7.63;1.58;;;14.50;1.00;;;;;;4841587;29;20048;-36
2022/11/22 07:13:43;;;;;;;3.95;1.10;;;14.50;1.00;;;;;;4841094;29;20601;-36
2022/11/22 07:16:12;;;;;;;3.72;1.27;;;14.50;1.00;;;;;;4841413;29;20049;-36
2022/11/22 07:18:39;;;;;;;2.03;0.98;;;14.50;1.00;;;;;;4841583;29;20048;-36
2022/11/22 07:21:12;;;;;;;5.82;1.45;;;14.50;1.00;;;;;;4841496;29;20074;-36
2022/11/22 07:23:41;;;;;;;4.95;1.15;;;14.50;1.00;;;;;;4841152;29;20405;-37
2022/11/22 07:26:09;;;;;;;2.15;1.20;;;14.50;1.00;;;;;;4841374;29;20057;-37
2022/11/22 07:28:36;;;;;;;4.63;1.17;;;14.40;1.00;;;;;;4841018;29;20053;-37
2022/11/22 07:31:05;;;;;;;4.07;1.17;;;14.40;1.00;;;;;;4840586;29;20042;-37
2022/11/22 07:33:32;;;;;;;5.57;1.10;;;14.40;1.00;;;;;;4836453;29;20046;-37
2022/11/22 07:36:16;;;;;;;4.65;1.52;;;14.40;1.00;;;;;;4835285;29;20338;-36
2022/11/22 07:38:45;;;;;;;2.75;1.00;;;14.40;1.00;;;;;;4833950;29;20402;-36
2022/11/22 07:41:12;;;;;;;2.25;0.93;;;14.40;1.00;;;;;;4820204;29;20046;-36
2022/11/22 07:43:39;;;;;;;9.05;1.80;;;14.40;1.00;;;;;;4841019;29;20038;-36
2022/11/22 07:46:17;;;;;;;2.97;1.67;;;14.40;1.00;;;;;;4841068;29;20128;-37
2022/11/22 07:48:44;;;;;;;7.10;1.30;;;14.40;1.00;;;;;;4840769;29;20045;-36
2022/11/22 07:51:11;;;;;;;3.53;1.15;;;14.40;1.00;;;;;;4840413;29;20129;-36
2022/11/22 07:53:37;;;;;;;3.17;1.20;;;14.40;1.00;;;;;;4840926;29;20060;-36
2022/11/22 07:56:05;;;;;;;5.63;1.45;;;14.40;1.00;;;;;;4841120;29;20106;-36
2022/11/22 07:58:33;;;;;;;6.22;1.42;;;14.30;1.00;;;;;;4840961;29;20050;-36
2022/11/22 08:01:05;;;;;;;3.75;1.10;;;14.40;1.00;;;;;;4841052;29;20049;-37
2022/11/22 08:03:32;;;;;;;4.93;1.08;;;14.30;1.00;;;;;;4840862;29;20060;-36
2022/11/22 08:06:01;;;;;;;2.17;1.33;;;14.30;1.00;;;;;;4840921;29;20136;-37
2022/11/22 08:08:28;;;;;;;1.67;1.00;;;14.30;1.00;;;;;;4840958;29;20068;-37
2022/11/22 08:10:55;;;;;;;4.57;1.80;;;14.30;1.00;;;;;;4841072;29;20514;-37
2022/11/22 08:13:22;;;;;;;3.75;1.20;;;14.30;1.00;;;;;;4840491;29;20050;-37
2022/11/22 08:15:49;;;;;;;2.67;1.52;;;14.30;1.00;;;;;;4840843;29;20046;-37
2022/11/22 08:18:20;;;;;;;8.18;1.63;;;14.30;1.00;;;;;;4840958;29;20219;-37
2022/11/22 08:20:47;;;;;;;2.70;1.20;;;14.30;1.00;;;;;;4840859;29;20038;-37
2022/11/22 08:23:14;;;;;;;3.90;1.27;;;14.30;1.00;;;;;;4840562;29;20459;-37
2022/11/22 08:25:40;;;;;;;5.25;1.77;;;14.30;1.00;;;;;;4840830;29;20049;-37
2022/11/22 08:28:07;;;;;;;2.38;1.13;;;14.30;1.00;;;;;;4840859;29;20114;-37
2022/11/22 08:30:35;;;;;;;4.45;1.42;;;14.30;1.00;;;;;;4841193;29;20058;-37
2022/11/22 08:33:05;;;;;;;4.45;1.75;;;14.30;1.00;;;;;;4823205;29;20549;-37
2022/11/22 08:35:32;;;;;;;5.15;1.67;;;14.30;1.00;;;;;;4840625;29;20117;-36
2022/11/22 08:37:59;;;;;;;5.32;1.42;;;14.30;1.00;;;;;;4840720;29;20514;-36
2022/11/22 08:40:27;;;;;;;4.10;1.20;;;14.40;1.00;;;;;;4840660;29;20095;-36
2022/11/22 08:42:56;;;;;;;3.95;1.58;;;14.40;1.00;;;;;;4840286;29;20045;-37
2022/11/22 08:45:23;;;;;;;3.28;1.08;;;14.40;1.00;;;;;;4840547;29;20555;-37
2022/11/22 08:47:51;;;;;;;3.85;1.30;;;14.40;1.00;;;;;;4840560;29;20060;-36
2022/11/22 08:50:22;;;;;;;4.10;1.75;;;14.40;1.00;;;;;;4843742;29;20084;-36
2022/11/22 08:52:49;;;;;;;3.58;1.45;;;14.40;1.00;;;;;;4843529;29;20053;-37
2022/11/22 08:55:16;;;;;;;3.95;1.33;;;14.50;1.00;;;;;;4843906;29;20099;-37
2022/11/22 08:57:43;;;;;;;4.40;1.63;;;14.50;1.00;;;;;;4844002;29;20077;-37
2022/11/22 09:00:10;;;;;;;5.22;1.65;;;14.50;1.00;;;;;;4843720;29;20533;-37
2022/11/22 09:02:37;;;;;;;4.10;1.40;;;14.50;1.00;;;;;;4843471;29;20050;-37
2022/11/22 09:05:04;;;;;;;2.70;1.75;;;14.50;1.00;;;;;;4843895;29;20050;-37
2022/11/22 09:07:31;;;;;;;3.13;1.40;;;14.50;1.00;;;;;;4843845;29;20081;-37
2022/11/22 09:10:18;;;;;;;3.53;1.42;;;14.50;1.00;;;;;;4843230;29;20054;-37
2022/11/22 09:12:45;;;;;;;2.13;0.88;;;14.50;1.00;;;;;;4826760;29;20059;-37
2022/11/22 09:15:12;;;;;;;4.63;2.13;;;14.50;1.00;;;;;;4843515;29;20064;-37
2022/11/22 09:17:39;;;;;;;4.13;1.35;;;14.50;1.00;;;;;;4843521;29;20137;-37
2022/11/22 09:20:07;;;;;;;3.08;2.30;;;14.50;1.00;;;;;;4843376;29;20053;-37
2022/11/22 09:22:34;;;;;;;3.17;1.23;;;14.50;1.00;;;;;;4842992;29;20052;-37
2022/11/22 09:25:01;;;;;;;4.75;1.33;;;14.50;1.00;;;;;;4843310;29;20057;-37
2022/11/22 09:27:28;;;;;;;3.08;1.33;;;14.50;1.00;;;;;;4843528;29;20635;-37
2022/11/22 09:29:55;;;;;;;3.85;1.20;;;14.50;1.00;;;;;;4843319;29;20054;-37
2022/11/22 09:32:22;;;;;;;2.63;1.35;;;14.50;1.00;;;;;;4842962;29;20462;-37
2022/11/22 09:34:49;;;;;;;3.15;1.23;;;14.50;1.00;;;;;;4843255;29;20078;-35
2022/11/22 09:37:18;;;;;;;3.72;1.17;;;14.50;1.00;;;;;;4843274;29;20121;-36
2022/11/22 09:39:45;;;;;;;8.23;1.33;;;14.40;1.00;;;;;;4843005;29;20052;-36
2022/11/22 09:42:32;;;;;;;3.45;1.48;;;14.40;1.00;;;;;;4842828;29;20059;-37
2022/11/22 09:45:30;;;;;;;5.80;1.67;;;14.40;1.00;;;;;;4842955;29;20050;-37
2022/11/22 09:48:20;;;;;;;2.33;1.25;;;14.40;1.00;;;;;;4843059;29;20053;-36
2022/11/22 09:51:07;;;;;;;3.28;1.23;;;14.40;1.00;;;;;;4842877;29;20054;-36
2022/11/22 09:53:53;;;;;;;7.95;1.23;;;14.40;1.00;;;;;;4842576;29;20045;-36
2022/11/22 09:56:23;;;;;;;3.38;1.40;;;14.40;1.00;;;;;;4842672;29;20049;-36
2022/11/22 09:59:06;;;;;;;2.85;1.23;;;14.40;1.00;;;;;;4842745;29;20034;-36
2022/11/22 10:01:41;;;;;;;2.40;1.45;;;14.40;1.00;;;;;;4842719;29;20137;-37
2022/11/22 10:04:39;;;;;;;4.10;1.48;;;14.40;1.00;;;;;;4842505;29;20046;-36
2022/11/22 10:07:15;;;;;;;2.63;1.42;;;14.40;1.00;;;;;;4838620;29;20053;-37
2022/11/22 10:09:53;;;;;;;3.83;1.60;;;14.40;1.00;;;;;;4842742;29;20414;-36
2022/11/22 10:12:46;;;;;;;1.50;1.15;;;14.30;1.00;;;;;;4842259;29;20467;-37
2022/11/22 10:15:20;;;;;;;4.10;1.20;;;14.30;1.00;;;;;;4842344;29;20049;-37
2022/11/22 10:18:00;;;;;;;4.55;1.08;;;14.30;1.00;;;;;;4842333;29;20049;-37
2022/11/22 10:20:29;;;;;;;4.03;1.05;;;14.30;1.00;;;;;;4842359;29;20042;-36
2022/11/22 10:22:57;;;;;;;2.85;1.10;;;14.30;1.00;;;;;;4842393;29;20046;-37
2022/11/22 10:25:39;;;;;;;3.47;1.63;;;14.30;1.00;;;;;;4842421;29;20494;-36
2022/11/22 10:28:41;;;;;;;3.13;0.98;;;14.30;1.00;;;;;;4826200;29;20049;-36
2022/11/22 10:31:15;;;;;;;2.92;1.30;;;14.30;1.00;;;;;;4834415;29;20148;-36
2022/11/22 10:34:00;;;;;;;;;;;14.30;1.00;;;;;;4842388;29;20142;-36
2022/11/22 10:36:35;;;;;;;2.80;1.15;;;14.30;1.00;;;;;;4842056;29;20015;-36
2022/11/22 10:39:29;;;;;;;6.15;2.53;;;14.30;1.00;;;;;;4842100;29;20081;-36
2022/11/22 10:42:19;;;;;;;5.43;1.13;;;14.30;1.00;;;;;;4842034;29;20787;-36
2022/11/22 10:45:06;;;;;;;2.47;1.23;;;14.20;1.00;;;;;;4842098;29;20110;-36
2022/11/22 10:48:04;;;;;;;2.25;1.23;;;14.20;1.00;;;;;;4842153;29;20057;-36
2022/11/22 10:50:42;;;;;;;3.85;1.17;;;14.20;1.00;;;;;;4841736;29;20046;-36
2022/11/22 10:53:09;;;;;;;3.35;1.35;;;14.20;1.00;;;;;;4841484;29;20086;-36
2022/11/22 10:55:55;;;;;;;1.85;0.68;;;14.20;1.00;;;;;;4841579;29;20401;-37
2022/11/22 10:58:36;;;;;;;2.55;1.00;;;14.20;1.00;;;;;;4841889;29;20049;-36
2022/11/22 11:01:32;;;;;;;2.95;1.20;;;14.20;1.00;;;;;;4841649;29;20091;-36
2022/11/22 11:04:12;;;;;;;4.07;1.65;;;14.20;1.00;;;;;;4841417;29;20045;-36
2022/11/22 11:06:49;;;;;;;3.95;0.90;;;14.20;1.00;;;;;;4841781;29;20053;-36
2022/11/22 11:09:47;;;;;;;2.10;1.05;;;14.20;1.00;;;;;;4841527;29;20560;-36
2022/11/22 11:12:50;;;;;;;2.05;1.30;;;14.20;1.00;;;;;;4827640;29;20042;-37
2022/11/22 11:15:42;;;;;;;6.20;1.33;;;14.20;1.00;;;;;;4841628;29;20046;-36
2022/11/22 11:18:16;;;;;;;2.63;0.73;;;14.20;1.00;;;;;;4825631;29;20057;-36
2022/11/22 11:20:46;;;;;;;2.60;1.10;;;14.20;1.00;;;;;;4841575;29;20128;-36
2022/11/22 11:23:14;;;;;;;3.25;1.05;;;14.10;1.00;;;;;;4841256;29;20050;-36
2022/11/22 11:25:44;;;;;;;2.90;1.17;;;14.10;1.00;;;;;;4841419;29;20550;-36
2022/11/22 11:28:17;;;;;;;2.92;1.20;;;14.10;1.00;;;;;;4837022;24;20065;-35
2022/11/22 11:31:03;;;;;;;1.75;1.08;;;14.10;1.00;;;;;;4823046;29;20054;-35
2022/11/22 11:33:33;;;;;;;1.80;1.08;;;14.10;1.00;;;;;;4822969;29;20054;-35
2022/11/22 11:36:03;;;;;;;2.05;1.10;;;14.10;1.00;;;;;;4823005;29;20046;-35
2022/11/22 11:38:35;;;;;;;1.92;1.17;;;14.10;1.00;;;;;;4823161;29;20054;-35
2022/11/22 11:41:29;;;;;;;4.18;1.10;;;14.10;1.00;;;;;;4823062;29;20080;-34
2022/11/22 11:43:57;;;;;;;;;;;14.10;1.00;;;;;;4818369;29;20054;-34
2022/11/22 11:46:26;;;;;;;2.53;0.82;;;14.10;1.00;;;;;;4806426;29;20452;-34
2022/11/22 11:48:55;;;;;;;2.10;1.10;;;14.10;1.00;;;;;;4823068;29;20051;-34
2022/11/22 11:51:34;;;;;;;2.20;1.30;;;14.10;1.00;;;;;;4822776;29;20050;-35
2022/11/22 11:54:25;;;;;;;1.52;1.10;;;14.10;1.00;;;;;;4822837;29;20137;-34
2022/11/22 11:56:55;;;;;;;3.08;1.55;;;14.10;1.00;;;;;;4822760;29;20513;-35
2022/11/22 11:59:50;;;;;;;1.38;0.95;;;14.10;1.00;;;;;;4822643;29;20039;-35
2022/11/22 12:02:39;;;;;;;3.80;1.42;;;14.00;1.00;;;;;;4820702;29;20134;-35
2022/11/22 12:05:12;;;;;;;4.50;1.23;;;14.00;1.00;;;;;;4822830;29;20053;-34
2022/11/22 12:07:44;;;;;;;2.47;1.10;;;14.00;1.00;;;;;;4822839;29;20133;-34
2022/11/22 12:10:31;;;;;;;1.67;0.90;;;14.00;1.00;;;;;;4822730;29;20594;-34
2022/11/22 12:13:31;;;;;;;1.98;1.10;;;14.00;1.00;;;;;;4822858;29;20046;-34
2022/11/22 12:16:21;;;;;;;3.70;1.33;;;14.00;1.00;;;;;;4822600;29;20130;-34
2022/11/22 12:18:59;;;;;;;2.75;1.10;;;14.00;1.00;;;;;;4822880;29;20478;-35
2022/11/22 12:22:05;;;;;;;2.28;0.90;;;14.00;1.00;;;;;;4822644;29;20050;-35
2022/11/22 12:24:39;;;;;;;2.50;1.20;;;14.00;1.00;;;;;;4808424;29;20112;-34
2022/11/22 12:27:22;;;;;;;4.20;1.17;;;14.00;1.00;;;;;;4825745;29;20042;-34
2022/11/22 12:29:50;;;;;;;2.58;1.05;;;14.00;1.00;;;;;;4826252;29;20065;-35
2022/11/22 12:32:34;;;;;;;3.55;0.90;;;13.90;1.00;;;;;;4809459;29;20054;-35
2022/11/22 12:35:04;;;;;;;;;;;14.00;1.00;;;;;;4826193;29;20518;-34
2022/11/22 12:37:38;;;;;;;2.42;1.02;;;13.90;1.00;;;;;;4825814;29;19935;-35
2022/11/22 12:40:21;;;;;;;2.35;0.90;;;13.90;1.00;;;;;;4825754;29;20125;-35
2022/11/22 12:42:51;;;;;;;2.72;1.13;;;14.00;1.00;;;;;;4809441;29;20078;-35
2022/11/22 12:45:35;;;;;;;1.90;0.98;;;13.90;1.00;;;;;;4825711;29;20521;-35
2022/11/22 12:48:16;;;;;;;4.57;1.30;;;13.90;1.00;;;;;;4825886;29;20107;-34
2022/11/22 12:50:47;;;;;;;4.97;2.22;;;13.90;1.00;;;;;;4825504;29;20125;-35
2022/11/22 12:53:19;;;;;;;2.35;1.10;;;13.90;1.00;;;;;;4825425;29;20038;-34
2022/11/22 12:56:27;;;;;;;2.08;1.02;;;13.90;1.00;;;;;;4825468;29;20064;-35
2022/11/22 12:59:24;;;;;;;3.45;1.08;;;13.90;1.00;;;;;;4794881;29;20457;-35
2022/11/22 13:01:56;;;;;;;2.13;1.00;;;13.90;1.00;;;;;;4825438;29;20502;-35
2022/11/22 13:05:04;;;;;;;1.20;0.98;;;13.90;1.00;;;;;;4824957;29;20494;-35
2022/11/22 13:07:48;;;;;;;3.50;1.15;;;13.90;1.00;;;;;;4825076;29;20127;-35
2022/11/22 13:10:18;;;;;;;2.72;1.35;;;13.90;1.00;;;;;;4825161;29;20061;-35
2022/11/22 13:12:45;;;;;;;2.33;1.10;;;13.90;1.00;;;;;;4824901;29;20055;-35
2022/11/22 13:15:17;;;;;;;1.90;1.00;;;13.90;1.00;;;;;;4825177;29;20129;-35
2022/11/22 13:17:45;;;;;;;5.93;1.80;;;13.90;1.00;;;;;;4825203;29;20050;-35
2022/11/22 13:20:19;;;;;;;4.32;0.95;;;13.90;1.00;;;;;;4824985;29;20103;-35
2022/11/22 13:23:07;;;;;;;4.85;1.38;;;13.80;1.00;;;;;;4824884;29;20062;-34
2022/11/22 13:25:56;;;;;;;2.95;1.25;;;13.90;1.00;;;;;;4825072;29;20042;-34
2022/11/22 13:28:26;;;;;;;4.35;1.05;;;13.80;1.00;;;;;;4825003;29;20087;-35
2022/11/22 13:31:10;;;;;;;2.03;1.10;;;13.80;1.00;;;;;;4825015;29;20042;-35
2022/11/22 13:33:51;;;;;;;4.68;1.58;;;13.80;1.00;;;;;;4824459;29;20526;-35